createdAt,value
2023-01-21T00:01:12.985Z,31.50
2023-01-21T00:03:40.491Z,30.20
2023-01-21T00:06:09.745Z,29.90
2023-01-21T00:08:36.797Z,29.70
2023-01-21T00:11:06.195Z,31.60
2023-01-21T00:13:34.806Z,30.40
2023-01-21T00:16:02.827Z,30.60
2023-01-21T00:18:30.256Z,31.00
2023-01-21T00:20:57.228Z,31.20
2023-01-21T00:23:24.618Z,30.60
2023-01-21T00:26:01.259Z,31.30
2023-01-21T00:28:32.338Z,29.50
2023-01-21T00:31:00.518Z,30.30
2023-01-21T00:33:29.334Z,29.40
2023-01-21T00:36:00.867Z,31.20
2023-01-21T00:38:28.320Z,30.30
2023-01-21T00:41:03.154Z,30.40
2023-01-21T00:43:30.506Z,32.10
2023-01-21T00:45:59.079Z,31.10
2023-01-21T00:48:27.891Z,31.00
2023-01-21T00:50:58.537Z,32.00
2023-01-21T00:53:30.694Z,31.20
2023-01-21T00:56:05.354Z,30.50
2023-01-21T00:58:32.882Z,32.00
2023-01-21T01:01:09.260Z,32.90
2023-01-21T01:03:36.859Z,31.70
2023-01-21T01:06:13.221Z,32.50
2023-01-21T01:08:40.654Z,32.80
2023-01-21T01:11:07.637Z,33.00
2023-01-21T01:13:35.045Z,32.50
2023-01-21T01:16:02.202Z,31.60
2023-01-21T01:18:30.581Z,34.40
2023-01-21T01:20:57.522Z,33.00
2023-01-21T01:23:24.579Z,34.10
2023-01-21T01:26:02.163Z,34.40
2023-01-21T01:28:29.524Z,35.80
2023-01-21T01:30:57.580Z,32.70
2023-01-21T01:33:25.362Z,33.40
2023-01-21T01:35:52.616Z,35.00
2023-01-21T01:38:21.508Z,35.20
2023-01-21T01:40:49.846Z,34.00
2023-01-21T01:43:22.465Z,33.60
2023-01-21T01:45:49.518Z,36.20
2023-01-21T01:48:20.564Z,38.90
2023-01-21T01:50:47.432Z,35.30
2023-01-21T01:53:14.353Z,36.00
2023-01-21T01:55:41.514Z,37.10
2023-01-21T01:58:10.654Z,39.40
2023-01-21T02:00:37.965Z,37.00
2023-01-21T02:03:24.261Z,37.60
2023-01-21T02:05:51.719Z,39.20
2023-01-21T02:08:22.109Z,36.50
2023-01-21T02:10:49.300Z,38.00
2023-01-21T02:13:16.457Z,39.20
2023-01-21T02:16:02.667Z,39.00
2023-01-21T02:18:59.106Z,37.10
2023-01-21T02:21:42.833Z,37.60
2023-01-21T02:24:40.706Z,39.10
2023-01-21T02:27:16.458Z,37.80
2023-01-21T02:30:11.772Z,40.50
2023-01-21T02:32:40.562Z,40.30
2023-01-21T02:35:13.551Z,36.30
2023-01-21T02:38:02.515Z,38.50
2023-01-21T02:40:38.508Z,39.50
2023-01-21T02:43:15.150Z,37.80
2023-01-21T02:45:47.120Z,40.10
2023-01-21T02:48:16.593Z,40.20
2023-01-21T02:50:45.128Z,39.70
2023-01-21T02:53:32.330Z,37.00
2023-01-21T02:56:11.444Z,37.00
2023-01-21T02:58:43.428Z,39.70
2023-01-21T03:01:36.616Z,38.60
2023-01-21T03:04:25.554Z,36.40
2023-01-21T03:07:16.055Z,39.10
2023-01-21T03:09:43.001Z,38.60
2023-01-21T03:12:37.089Z,35.50
2023-01-21T03:15:27.692Z,38.30
2023-01-21T03:17:59.449Z,38.30
2023-01-21T03:20:51.284Z,37.40
2023-01-21T03:23:24.078Z,37.80
2023-01-21T03:25:51.216Z,38.60
2023-01-21T03:28:21.032Z,37.10
2023-01-21T03:33:21.997Z,36.80
2023-01-21T03:35:49.145Z,38.10
2023-01-21T03:38:19.982Z,38.40
2023-01-21T03:40:59.529Z,38.00
2023-01-21T03:43:26.586Z,37.80
2023-01-21T03:46:03.741Z,39.10
2023-01-21T03:48:51.503Z,37.50
2023-01-21T03:51:21.170Z,37.70
2023-01-21T03:56:19.001Z,37.30
2023-01-21T03:58:46.051Z,35.50
2023-01-21T04:01:13.247Z,37.50
2023-01-21T04:03:42.916Z,37.70
2023-01-21T04:06:14.193Z,37.40
2023-01-21T04:08:41.319Z,36.90
2023-01-21T04:11:08.275Z,37.80
2023-01-21T04:13:35.629Z,37.70
2023-01-21T04:16:02.825Z,37.40
2023-01-21T04:18:30.035Z,37.50
2023-01-21T04:20:57.199Z,37.30
2023-01-21T04:23:24.441Z,39.00
2023-01-21T04:25:51.595Z,35.20
2023-01-21T04:28:19.154Z,37.00
2023-01-21T04:30:46.822Z,35.80
2023-01-21T04:33:13.774Z,37.50
2023-01-21T04:35:41.844Z,35.10
2023-01-21T04:38:08.697Z,34.70
2023-01-21T04:40:35.849Z,36.90
2023-01-21T04:43:02.811Z,36.90
2023-01-21T04:45:30.249Z,35.60
2023-01-21T04:47:57.204Z,35.50
2023-01-21T04:50:24.557Z,37.20
2023-01-21T04:52:52.030Z,37.10
2023-01-21T04:55:19.275Z,33.50
2023-01-21T04:57:46.224Z,34.40
2023-01-21T05:00:15.742Z,35.40
2023-01-21T05:02:42.883Z,36.50
2023-01-21T05:05:09.841Z,32.40
2023-01-21T05:07:39.320Z,35.70
2023-01-21T05:10:07.004Z,34.40
2023-01-21T05:12:34.055Z,34.90
2023-01-21T05:15:01.005Z,33.50
2023-01-21T05:17:27.959Z,32.50
2023-01-21T05:19:55.209Z,34.10
2023-01-21T05:22:22.257Z,34.20
2023-01-21T05:24:49.410Z,33.80
2023-01-21T05:27:19.541Z,33.10
2023-01-21T05:29:46.481Z,33.40
2023-01-21T05:32:13.736Z,32.20
2023-01-21T05:34:41.094Z,32.90
2023-01-21T05:37:08.052Z,33.00
2023-01-21T05:39:35.197Z,33.90
2023-01-21T05:42:03.071Z,32.50
2023-01-21T05:44:30.116Z,31.30
2023-01-21T05:46:57.168Z,33.10
2023-01-21T05:49:26.778Z,31.30
2023-01-21T05:51:54.045Z,30.00
2023-01-21T05:54:21.098Z,31.40
2023-01-21T05:56:48.138Z,32.10
2023-01-21T05:59:15.191Z,31.90
2023-01-21T06:01:42.236Z,29.60
2023-01-21T06:04:09.291Z,31.00
2023-01-21T06:06:36.444Z,30.30
2023-01-21T06:09:03.598Z,29.20
2023-01-21T06:11:30.542Z,29.00
2023-01-21T06:13:57.619Z,28.90
2023-01-21T06:16:24.642Z,30.10
2023-01-21T06:18:51.802Z,29.10
2023-01-21T06:21:18.743Z,30.50
2023-01-21T06:23:46.105Z,29.70
2023-01-21T06:26:13.053Z,29.80
2023-01-21T06:28:40.613Z,28.50
2023-01-21T06:31:07.916Z,29.00
2023-01-21T06:33:35.138Z,28.60
2023-01-21T06:36:02.174Z,29.50
2023-01-21T06:38:29.534Z,28.00
2023-01-21T06:40:56.685Z,28.60
2023-01-21T06:43:23.736Z,29.50
2023-01-21T06:45:50.997Z,28.00
2023-01-21T06:48:18.055Z,29.00
2023-01-21T06:50:45.850Z,29.30
2023-01-21T06:53:15.216Z,29.80
2023-01-21T06:55:42.474Z,27.50
2023-01-21T06:58:09.416Z,28.10
2023-01-21T07:00:36.604Z,28.20
2023-01-21T07:03:03.793Z,29.00
2023-01-21T07:05:30.881Z,28.10
2023-01-21T07:07:57.931Z,27.70
2023-01-21T07:10:24.884Z,28.80
2023-01-21T07:12:52.037Z,28.10
2023-01-21T07:15:20.519Z,26.40
2023-01-21T07:17:48.194Z,26.40
2023-01-21T07:20:16.216Z,28.70
2023-01-21T07:22:45.044Z,27.80
2023-01-21T07:25:12.200Z,26.60
2023-01-21T07:27:43.036Z,25.80
2023-01-21T07:30:16.000Z,24.80
2023-01-21T07:32:42.972Z,26.30
2023-01-21T07:35:10.127Z,25.70
2023-01-21T07:37:39.023Z,25.90
2023-01-21T07:40:07.084Z,25.90
2023-01-21T07:42:34.248Z,28.80
2023-01-21T07:45:03.372Z,27.70
2023-01-21T07:47:30.599Z,29.40
2023-01-21T07:49:57.649Z,26.60
2023-01-21T07:52:26.437Z,24.20
2023-01-21T07:54:53.387Z,25.20
2023-01-21T07:57:20.434Z,26.80
2023-01-21T07:59:47.381Z,25.10
2023-01-21T08:02:14.746Z,25.60
2023-01-21T08:04:41.892Z,25.00
2023-01-21T08:07:11.971Z,25.20
2023-01-21T08:09:40.879Z,26.40
2023-01-21T08:12:08.265Z,26.80
2023-01-21T08:14:35.312Z,26.60
2023-01-21T08:17:02.680Z,26.30
2023-01-21T08:19:29.821Z,23.60
2023-01-21T08:21:56.869Z,25.30
2023-01-21T08:24:23.922Z,26.30
2023-01-21T08:26:50.967Z,26.60
2023-01-21T08:29:18.130Z,27.40
2023-01-21T08:31:45.220Z,24.20
2023-01-21T08:34:12.324Z,26.60
2023-01-21T08:36:39.420Z,26.10
2023-01-21T08:39:06.457Z,27.80
2023-01-21T08:41:33.676Z,28.30
2023-01-21T08:44:00.721Z,27.40
2023-01-21T08:46:28.084Z,25.70
2023-01-21T08:50:19.932Z,25.40
2023-01-21T08:52:56.397Z,28.60
2023-01-21T08:55:27.343Z,29.10
2023-01-21T08:57:56.039Z,28.60
2023-01-21T09:00:24.122Z,27.50
2023-01-21T09:02:51.812Z,27.40
2023-01-21T09:05:19.379Z,27.90
2023-01-21T09:07:46.893Z,29.30
2023-01-21T09:10:34.228Z,29.40
2023-01-21T09:13:08.216Z,31.90
2023-01-21T09:15:42.172Z,27.80
2023-01-21T09:18:09.788Z,30.90
2023-01-21T09:20:37.143Z,32.00
2023-01-21T09:23:24.645Z,33.10
2023-01-21T09:25:56.533Z,29.90
2023-01-21T09:28:23.893Z,28.90
2023-01-21T09:30:58.143Z,30.90
2023-01-21T09:33:25.417Z,31.10
2023-01-21T09:35:56.239Z,32.40
2023-01-21T09:38:23.552Z,29.80
2023-01-21T09:40:50.703Z,29.50
2023-01-21T09:43:29.141Z,30.50
2023-01-21T09:45:57.804Z,32.70
2023-01-21T09:48:45.239Z,30.80
2023-01-21T09:51:39.202Z,31.20
2023-01-21T09:54:06.263Z,32.80
2023-01-21T09:56:48.772Z,32.50
2023-01-21T09:59:33.950Z,31.10
2023-01-21T10:02:01.098Z,31.60
2023-01-21T10:04:40.870Z,31.70
2023-01-21T10:07:12.090Z,32.20
2023-01-21T10:09:55.319Z,33.30
2023-01-21T10:12:37.316Z,30.00
2023-01-21T10:15:31.411Z,30.70
2023-01-21T10:18:01.421Z,31.50
2023-01-21T10:23:05.777Z,31.10
2023-01-21T10:25:33.800Z,29.10
2023-01-21T10:28:25.465Z,29.60
2023-01-21T10:30:58.933Z,30.20
2023-01-21T10:33:27.022Z,29.10
2023-01-21T10:36:26.533Z,29.00
2023-01-21T10:39:22.968Z,29.40
2023-01-21T10:42:18.281Z,30.20
2023-01-21T10:44:45.431Z,28.30
2023-01-21T10:47:37.060Z,27.70
2023-01-21T10:50:27.465Z,29.70
2023-01-21T10:53:13.036Z,27.20
2023-01-21T10:56:00.260Z,26.60
2023-01-21T10:58:29.150Z,26.30
2023-01-21T11:00:58.181Z,23.90
2023-01-21T11:03:35.631Z,28.80
2023-01-21T11:06:04.655Z,26.80
2023-01-21T11:08:31.886Z,30.40
2023-01-21T11:10:59.142Z,27.80
2023-01-21T11:13:26.404Z,28.10
2023-01-21T11:15:55.213Z,27.80
2023-01-21T11:18:35.437Z,25.40
2023-01-21T11:21:15.590Z,24.90
2023-01-21T11:23:42.750Z,25.50
2023-01-21T11:26:18.644Z,25.30
2023-01-21T11:28:46.565Z,25.30
2023-01-21T11:31:15.290Z,25.40
2023-01-21T11:33:43.231Z,26.70
2023-01-21T11:36:20.337Z,26.10
2023-01-21T11:38:49.743Z,26.40
2023-01-21T11:41:20.341Z,26.60
2023-01-21T11:43:52.515Z,28.30
2023-01-21T11:46:26.885Z,26.50
2023-01-21T11:48:57.257Z,26.80
2023-01-21T11:51:24.509Z,26.20
2023-01-21T11:54:11.325Z,27.80
2023-01-21T11:56:38.581Z,25.70
2023-01-21T11:59:24.156Z,25.90
2023-01-21T12:01:58.047Z,27.90
2023-01-21T12:04:25.726Z,28.00
2023-01-21T12:06:55.950Z,26.80
2023-01-21T12:09:23.188Z,27.10
2023-01-21T12:12:14.316Z,29.10
2023-01-21T12:14:51.321Z,27.70
2023-01-21T12:17:22.237Z,28.30
2023-01-21T12:20:02.596Z,28.70
2023-01-21T12:22:45.417Z,29.20
2023-01-21T12:25:23.325Z,28.80
2023-01-21T12:28:28.566Z,32.10
2023-01-21T12:31:05.938Z,31.50
2023-01-21T12:33:33.207Z,33.70
2023-01-21T12:36:11.416Z,32.60
2023-01-21T12:38:44.924Z,33.30
2023-01-21T12:41:24.212Z,33.00
2023-01-21T12:44:16.489Z,31.50
2023-01-21T12:46:46.500Z,31.30
2023-01-21T12:49:15.712Z,32.30
2023-01-21T12:52:23.100Z,23.30
2023-01-21T12:55:15.011Z,28.00
2023-01-21T12:57:47.405Z,30.10
2023-01-21T13:00:18.565Z,28.40
2023-01-21T13:03:04.132Z,28.10
2023-01-21T13:05:54.320Z,28.50
2023-01-21T13:08:46.667Z,28.20
2023-01-21T13:11:16.990Z,26.10
2023-01-21T13:14:07.383Z,26.80
2023-01-21T13:16:44.301Z,28.10
2023-01-21T13:19:13.053Z,26.30
2023-01-21T13:21:45.212Z,26.70
2023-01-21T13:24:31.825Z,27.40
2023-01-21T13:27:32.357Z,27.70
2023-01-21T13:30:15.078Z,24.00
2023-01-21T13:32:48.879Z,26.40
2023-01-21T13:35:31.390Z,26.10
2023-01-21T13:38:24.961Z,24.50
2023-01-21T13:41:10.649Z,23.00
2023-01-21T13:43:54.834Z,24.60
2023-01-21T13:46:35.470Z,24.40
2023-01-21T13:49:16.539Z,24.40
2023-01-21T13:52:08.983Z,24.30
2023-01-21T13:54:48.627Z,25.10
2023-01-21T13:57:22.015Z,22.70
2023-01-21T13:59:52.437Z,19.30
2023-01-21T14:02:30.265Z,19.80
2023-01-21T14:05:05.187Z,19.60
2023-01-21T18:59:47.518Z,20.40
2023-01-21T19:02:19.241Z,22.10
2023-01-21T19:04:47.062Z,19.10
2023-01-21T19:07:14.709Z,20.10
2023-01-21T19:09:46.215Z,19.90
2023-01-21T19:12:14.338Z,18.70
2023-01-21T19:14:41.593Z,18.20
2023-01-21T19:17:29.231Z,18.50
2023-01-21T19:19:56.783Z,18.30
2023-01-21T19:22:24.141Z,18.40
2023-01-21T19:24:51.300Z,17.40
2023-01-21T19:27:39.025Z,17.00
2023-01-21T19:30:17.492Z,17.50
2023-01-21T19:32:44.797Z,18.50
2023-01-21T19:35:19.767Z,17.90
2023-01-21T19:37:49.743Z,17.40
2023-01-21T19:40:21.608Z,16.00
2023-01-21T19:42:49.072Z,15.60
2023-01-21T19:45:17.025Z,16.40
2023-01-21T19:47:45.125Z,17.00
2023-01-21T19:50:14.791Z,15.60
2023-01-21T19:52:42.188Z,15.70
2023-01-21T19:55:14.244Z,16.40
2023-01-21T19:57:41.405Z,16.90
2023-01-21T20:00:25.047Z,16.90
2023-01-21T20:02:52.403Z,16.00
2023-01-21T20:05:19.652Z,15.40
2023-01-21T20:07:47.931Z,15.50
2023-01-21T20:10:20.686Z,17.60
2023-01-21T20:12:48.687Z,17.20
2023-01-21T20:15:17.295Z,17.10
2023-01-21T20:17:49.445Z,16.10
2023-01-21T20:20:18.272Z,16.90
2023-01-21T20:22:45.594Z,18.50
2023-01-21T20:25:23.197Z,17.60
2023-01-21T20:27:52.674Z,16.40
2023-01-21T20:30:21.738Z,12.80
2023-01-21T20:32:50.078Z,16.50
2023-01-21T20:35:17.893Z,18.50
2023-01-21T20:37:49.097Z,19.10
2023-01-21T20:40:26.388Z,16.00
2023-01-21T20:42:54.213Z,17.70
2023-01-21T20:45:30.038Z,18.80
2023-01-21T20:47:58.801Z,18.70
2023-01-21T20:50:28.511Z,17.40
2023-01-21T20:52:56.835Z,17.10
2023-01-21T20:55:25.197Z,18.30
2023-01-21T20:57:52.436Z,19.40
2023-01-21T21:00:24.635Z,19.20
2023-01-21T21:02:51.852Z,18.40
2023-01-21T21:05:19.427Z,20.10
2023-01-21T21:07:46.876Z,19.70
2023-01-21T21:10:21.075Z,25.50
2023-01-21T21:12:48.768Z,19.70
2023-01-21T21:15:16.599Z,18.70
2023-01-21T21:17:44.182Z,19.10
2023-01-21T21:20:19.765Z,18.40
2023-01-21T21:22:47.299Z,19.80
2023-01-21T21:25:18.825Z,19.20
2023-01-21T21:27:46.412Z,19.40
2023-01-21T21:30:31.582Z,19.40
2023-01-21T21:32:59.975Z,20.20
2023-01-21T21:35:30.496Z,21.20
2023-01-21T21:37:59.297Z,20.40
2023-01-21T21:40:27.366Z,19.30
2023-01-21T21:43:13.271Z,20.70
2023-01-21T21:46:00.440Z,21.50
2023-01-21T21:48:40.117Z,22.50
2023-01-21T21:51:11.533Z,21.60
2023-01-21T21:53:39.163Z,22.70
2023-01-21T21:56:10.583Z,24.30
2023-01-21T21:58:37.733Z,25.90
2023-01-21T22:01:15.229Z,25.40
2023-01-21T22:03:42.694Z,24.20
2023-01-21T22:06:10.330Z,24.40
2023-01-21T22:08:39.205Z,22.90
2023-01-21T22:11:08.001Z,22.20
2023-01-21T22:13:37.689Z,22.90
2023-01-21T22:16:05.287Z,22.10
2023-01-21T22:18:32.466Z,23.50
